createdAt,value
2023-03-29T00:00:14.690Z,95569.00
2023-03-29T00:04:14.938Z,95576.00
2023-03-29T00:08:15.088Z,95598.00
2023-03-29T00:12:15.367Z,95618.00
2023-03-29T00:16:15.521Z,95618.00
2023-03-29T00:20:15.640Z,95612.00
2023-03-29T00:24:15.880Z,95608.00
2023-03-29T00:28:16.105Z,95624.00
2023-03-29T00:32:16.346Z,95631.00
2023-03-29T00:36:16.545Z,95631.00
2023-03-29T00:40:17.369Z,95645.00
2023-03-29T00:44:16.964Z,95657.00
2023-03-29T00:48:17.152Z,95657.00
2023-03-29T00:52:17.504Z,95647.00
2023-03-29T00:56:17.601Z,95643.00
2023-03-29T01:00:17.727Z,95659.00
2023-03-29T01:04:17.555Z,95671.00
2023-03-29T01:08:17.501Z,95680.00
2023-03-29T01:12:17.485Z,95665.00
2023-03-29T01:16:17.603Z,95667.00
2023-03-29T01:20:17.425Z,95659.00
2023-03-29T01:24:17.362Z,95641.00
2023-03-29T01:28:17.341Z,95659.00
2023-03-29T01:32:17.342Z,95647.00
2023-03-29T01:36:17.288Z,95645.00
2023-03-29T01:40:17.359Z,95659.00
2023-03-29T01:44:17.564Z,95639.00
2023-03-29T01:48:17.746Z,95633.00
2023-03-29T01:52:17.947Z,95631.00
2023-03-29T01:56:17.912Z,95631.00
2023-03-29T02:00:17.826Z,95629.00
2023-03-29T02:04:17.800Z,95627.00
2023-03-29T02:08:17.776Z,95622.00
2023-03-29T02:12:17.769Z,95622.00
2023-03-29T02:16:17.744Z,95612.00
2023-03-29T02:20:17.760Z,95608.00
2023-03-29T02:24:17.624Z,95604.00
2023-03-29T02:28:17.898Z,95604.00
2023-03-29T02:32:17.621Z,95604.00
2023-03-29T02:36:17.656Z,95602.00
2023-03-29T02:40:17.788Z,95610.00
2023-03-29T02:44:17.954Z,95606.00
2023-03-29T02:48:18.171Z,95598.00
2023-03-29T02:52:18.384Z,95598.00
2023-03-29T02:56:18.656Z,95584.00
2023-03-29T03:00:18.845Z,95580.00
2023-03-29T03:04:18.832Z,95578.00
2023-03-29T03:08:18.790Z,95580.00
2023-03-29T03:12:18.740Z,95578.00
2023-03-29T03:16:18.796Z,95578.00
2023-03-29T03:20:18.761Z,95578.00
2023-03-29T03:24:18.789Z,95584.00
2023-03-29T03:28:18.684Z,95586.00
2023-03-29T03:32:18.630Z,95600.00
2023-03-29T03:36:18.593Z,95602.00
2023-03-29T03:40:18.603Z,95612.00
2023-03-29T03:44:18.580Z,95624.00
2023-03-29T03:48:18.584Z,95616.00
2023-03-29T03:52:18.592Z,95606.00
2023-03-29T03:56:19.434Z,95596.00
2023-03-29T04:00:18.524Z,95592.00
2023-03-29T04:04:18.537Z,95590.00
2023-03-29T04:08:18.985Z,95590.00
2023-03-29T04:12:18.472Z,95588.00
2023-03-29T04:16:18.588Z,95574.00
2023-03-29T04:20:18.423Z,95563.00
2023-03-29T04:24:18.418Z,95551.00
2023-03-29T04:28:18.419Z,95559.00
2023-03-29T04:32:18.395Z,95559.00
2023-03-29T04:36:18.414Z,95543.00
2023-03-29T04:40:18.360Z,95533.00
2023-03-29T04:44:18.344Z,95535.00
2023-03-29T04:48:18.301Z,95520.00
2023-03-29T04:52:18.265Z,95516.00
2023-03-29T04:56:18.346Z,95524.00
2023-03-29T05:00:18.176Z,95524.00
2023-03-29T05:04:18.233Z,95527.00
2023-03-29T05:08:18.079Z,95518.00
2023-03-29T05:12:18.019Z,95512.00
2023-03-29T05:16:18.022Z,95506.00
2023-03-29T05:20:17.987Z,95504.00
2023-03-29T05:24:17.914Z,95506.00
2023-03-29T05:28:17.821Z,95502.00
2023-03-29T05:32:17.755Z,95512.00
2023-03-29T05:36:17.886Z,95504.00
2023-03-29T05:40:18.010Z,95510.00
2023-03-29T05:44:18.515Z,95508.00
2023-03-29T05:48:17.848Z,95510.00
2023-03-29T05:52:19.485Z,95514.00
2023-03-29T05:56:18.483Z,95514.00
2023-03-29T06:00:18.173Z,95518.00
2023-03-29T06:04:18.586Z,95512.00
2023-03-29T06:08:18.502Z,95522.00
2023-03-29T06:12:18.222Z,95522.00
2023-03-29T06:16:18.266Z,95537.00
2023-03-29T06:20:18.221Z,95533.00
2023-03-29T06:24:18.187Z,95533.00
2023-03-29T06:28:18.213Z,95533.00
2023-03-29T06:32:18.296Z,95539.00
2023-03-29T06:36:18.289Z,95543.00
2023-03-29T06:40:18.061Z,95549.00
2023-03-29T06:44:18.157Z,95547.00
2023-03-29T06:48:18.530Z,95561.00
2023-03-29T06:52:18.542Z,95561.00
2023-03-29T06:56:18.173Z,95563.00
2023-03-29T07:00:18.135Z,95569.00
2023-03-29T07:04:18.663Z,95565.00
2023-03-29T07:08:18.127Z,95561.00
2023-03-29T07:12:18.519Z,95563.00
2023-03-29T07:16:18.220Z,95571.00
2023-03-29T07:20:18.496Z,95567.00
2023-03-29T07:24:18.306Z,95563.00
2023-03-29T07:28:19.036Z,95563.00
2023-03-29T07:32:18.690Z,95559.00
2023-03-29T07:36:18.761Z,95567.00
2023-03-29T07:40:19.070Z,95567.00
2023-03-29T07:44:19.516Z,95561.00
2023-03-29T07:48:18.829Z,95565.00
2023-03-29T07:52:18.769Z,95559.00
2023-03-29T07:56:18.680Z,95563.00
2023-03-29T08:00:18.642Z,95569.00
2023-03-29T08:04:18.742Z,95567.00
2023-03-29T08:08:18.497Z,95559.00
2023-03-29T08:12:18.350Z,95563.00
2023-03-29T08:16:18.331Z,95569.00
2023-03-29T08:20:18.202Z,95574.00
2023-03-29T08:24:20.821Z,95572.00
2023-03-29T08:28:18.072Z,95571.00
2023-03-29T08:32:17.980Z,95567.00
2023-03-29T08:36:19.558Z,95580.00
2023-03-29T08:40:17.779Z,95584.00
2023-03-29T08:44:17.672Z,95596.00
2023-03-29T08:48:18.081Z,95596.00
2023-03-29T08:52:18.587Z,95600.00
2023-03-29T08:56:17.689Z,95590.00
2023-03-29T09:00:17.870Z,95594.00
2023-03-29T09:04:17.725Z,95590.00
2023-03-29T09:08:18.051Z,95588.00
2023-03-29T09:12:17.570Z,95594.00
2023-03-29T09:16:18.118Z,95590.00
2023-03-29T09:20:17.427Z,95588.00
2023-03-29T09:24:17.329Z,95588.00
2023-03-29T09:28:17.597Z,95590.00
2023-03-29T09:32:17.137Z,95588.00
2023-03-29T09:36:17.162Z,95590.00
2023-03-29T09:40:17.109Z,95590.00
2023-03-29T09:44:29.821Z,95588.00
2023-03-29T09:48:18.061Z,95576.00
2023-03-29T09:52:17.066Z,95578.00
2023-03-29T09:56:16.884Z,95578.00
2023-03-29T10:00:17.102Z,95574.00
2023-03-29T10:04:17.084Z,95565.00
2023-03-29T10:08:18.929Z,95561.00
2023-03-29T10:12:17.116Z,95555.00
2023-03-29T10:16:16.913Z,95549.00
2023-03-29T10:20:16.695Z,95549.00
2023-03-29T10:24:17.158Z,95547.00
2023-03-29T10:28:16.583Z,95549.00
2023-03-29T10:32:16.626Z,95545.00
2023-03-29T10:36:16.586Z,95553.00
2023-03-29T10:40:16.605Z,95549.00
2023-03-29T10:44:16.264Z,95547.00
2023-03-29T10:48:16.208Z,95545.00
2023-03-29T10:52:16.106Z,95541.00
2023-03-29T10:56:16.087Z,95543.00
2023-03-29T11:00:15.951Z,95547.00
2023-03-29T11:04:15.847Z,95535.00
2023-03-29T11:08:15.943Z,95543.00
2023-03-29T11:12:16.620Z,95539.00
2023-03-29T11:16:16.162Z,95535.00
2023-03-29T11:20:16.040Z,95527.00
2023-03-29T11:24:16.065Z,95522.00
2023-03-29T11:28:16.226Z,95514.00
2023-03-29T11:32:16.113Z,95520.00
2023-03-29T11:36:16.666Z,95514.00
2023-03-29T11:40:16.229Z,95510.00
2023-03-29T11:44:16.458Z,95510.00
2023-03-29T11:48:16.441Z,95506.00
2023-03-29T11:52:16.563Z,95500.00
2023-03-29T11:56:24.193Z,95492.00
2023-03-29T12:00:16.616Z,95480.00
2023-03-29T12:04:16.682Z,95474.00
2023-03-29T12:08:16.494Z,95469.00
2023-03-29T12:12:16.407Z,95459.00
2023-03-29T12:16:16.352Z,95459.00
2023-03-29T12:20:16.164Z,95451.00
2023-03-29T12:24:16.104Z,95449.00
2023-03-29T12:28:17.630Z,95441.00
2023-03-29T12:32:16.001Z,95433.00
2023-03-29T12:36:16.001Z,95435.00
2023-03-29T12:40:15.899Z,95424.00
2023-03-29T12:44:15.781Z,95427.00
2023-03-29T12:48:15.720Z,95426.00
2023-03-29T12:52:15.721Z,95426.00
2023-03-29T12:56:15.671Z,95422.00
2023-03-29T13:00:15.653Z,95416.00
2023-03-29T13:04:15.589Z,95404.00
2023-03-29T13:08:15.560Z,95392.00
2023-03-29T13:12:25.677Z,95400.00
2023-03-29T13:16:15.555Z,95388.00
2023-03-29T13:20:15.378Z,95404.00
2023-03-29T13:24:15.281Z,95404.00
2023-03-29T13:28:15.202Z,95410.00
2023-03-29T13:32:15.105Z,95414.00
2023-03-29T13:36:15.047Z,95422.00
2023-03-29T13:40:14.909Z,95422.00
2023-03-29T13:44:14.827Z,95418.00
2023-03-29T13:48:14.759Z,95424.00
2023-03-29T13:52:14.642Z,95416.00
2023-03-29T13:56:14.676Z,95414.00
2023-03-29T14:00:14.699Z,95406.00
2023-03-29T14:04:14.805Z,95404.00
2023-03-29T14:08:14.880Z,95404.00
2023-03-29T14:12:14.932Z,95410.00
2023-03-29T14:16:15.044Z,95410.00
2023-03-29T14:20:15.090Z,95410.00
2023-03-29T14:24:15.268Z,95404.00
2023-03-29T14:28:15.314Z,95390.00
2023-03-29T14:32:15.467Z,95392.00
2023-03-29T14:36:15.522Z,95404.00
2023-03-29T14:40:15.611Z,95412.00
2023-03-29T14:44:15.676Z,95416.00
2023-03-29T14:48:15.867Z,95406.00
2023-03-29T14:52:15.895Z,95404.00
2023-03-29T14:56:16.026Z,95406.00
2023-03-29T15:00:16.172Z,95408.00
2023-03-29T15:04:16.228Z,95410.00
2023-03-29T15:08:16.309Z,95414.00
2023-03-29T15:12:16.377Z,95412.00
2023-03-29T15:16:16.528Z,95406.00
2023-03-29T15:20:16.733Z,95390.00
2023-03-29T15:24:16.675Z,95378.00
2023-03-29T15:28:16.754Z,95369.00
2023-03-29T15:32:16.841Z,95365.00
2023-03-29T15:36:17.058Z,95363.00
2023-03-29T15:40:17.188Z,95361.00
2023-03-29T15:44:17.203Z,95357.00
2023-03-29T15:48:17.331Z,95363.00
2023-03-29T15:52:17.498Z,95353.00
2023-03-29T15:56:17.608Z,95349.00
2023-03-29T16:00:17.669Z,95343.00
2023-03-29T16:04:17.785Z,95341.00
2023-03-29T16:08:17.892Z,95341.00
2023-03-29T16:12:17.935Z,95341.00
2023-03-29T16:16:18.075Z,95345.00
2023-03-29T16:20:18.149Z,95337.00
2023-03-29T16:24:18.177Z,95345.00
2023-03-29T16:28:18.278Z,95345.00
2023-03-29T16:32:18.369Z,95339.00
2023-03-29T16:36:18.400Z,95339.00
2023-03-29T16:40:18.385Z,95339.00
2023-03-29T16:44:20.753Z,95331.00
2023-03-29T16:48:18.412Z,95333.00
2023-03-29T16:52:18.327Z,95341.00
2023-03-29T16:56:19.248Z,95337.00
2023-03-29T17:00:18.178Z,95329.00
2023-03-29T17:04:18.136Z,95327.00
2023-03-29T17:08:18.013Z,95329.00
2023-03-29T17:12:18.142Z,95337.00
2023-03-29T17:16:18.227Z,95341.00
2023-03-29T17:20:18.164Z,95333.00
2023-03-29T17:24:18.138Z,95331.00
2023-03-29T17:28:18.108Z,95341.00
2023-03-29T17:32:18.039Z,95337.00
2023-03-29T17:36:18.028Z,95339.00
2023-03-29T17:40:17.951Z,95343.00
2023-03-29T17:44:17.916Z,95351.00
2023-03-29T17:48:17.929Z,95343.00
2023-03-29T17:52:17.924Z,95349.00
2023-03-29T17:56:17.957Z,95359.00
2023-03-29T18:00:17.941Z,95355.00
2023-03-29T18:04:17.957Z,95361.00
2023-03-29T18:08:17.921Z,95369.00
2023-03-29T18:12:17.950Z,95365.00
2023-03-29T18:16:17.990Z,95369.00
2023-03-29T18:20:18.033Z,95361.00
2023-03-29T18:24:18.057Z,95361.00
2023-03-29T18:28:18.119Z,95359.00
2023-03-29T18:32:18.202Z,95357.00
2023-03-29T18:36:18.237Z,95369.00
2023-03-29T18:40:18.273Z,95372.00
2023-03-29T18:44:18.298Z,95370.00
2023-03-29T18:48:18.355Z,95369.00
2023-03-29T18:52:18.415Z,95386.00
2023-03-29T18:56:18.477Z,95388.00
2023-03-29T19:00:18.491Z,95406.00
2023-03-29T19:04:18.577Z,95406.00
2023-03-29T19:08:18.606Z,95408.00
2023-03-29T19:12:18.678Z,95416.00
2023-03-29T19:16:18.866Z,95412.00
2023-03-29T19:20:18.882Z,95416.00
2023-03-29T19:24:18.918Z,95424.00
2023-03-29T19:28:19.011Z,95412.00
2023-03-29T19:32:19.073Z,95427.00
2023-03-29T19:36:19.162Z,95418.00
2023-03-29T19:40:19.324Z,95418.00
2023-03-29T19:44:19.338Z,95433.00
2023-03-29T19:48:23.051Z,95441.00
2023-03-29T19:52:19.411Z,95447.00
2023-03-29T19:56:19.360Z,95447.00
2023-03-29T20:00:19.353Z,95443.00
2023-03-29T20:04:19.306Z,95453.00
2023-03-29T20:08:19.253Z,95461.00
2023-03-29T20:12:19.217Z,95463.00
2023-03-29T20:16:19.276Z,95459.00
2023-03-29T20:20:19.365Z,95453.00
2023-03-29T20:24:19.490Z,95455.00
2023-03-29T20:28:19.594Z,95449.00
2023-03-29T20:32:19.828Z,95449.00
2023-03-29T20:36:19.955Z,95439.00
2023-03-29T20:40:20.057Z,95441.00
2023-03-29T20:44:20.140Z,95433.00
2023-03-29T20:48:20.280Z,95429.00
2023-03-29T20:52:20.435Z,95427.00
2023-03-29T20:56:20.606Z,95420.00
2023-03-29T21:00:20.741Z,95420.00
2023-03-29T21:04:20.872Z,95404.00
2023-03-29T21:08:21.047Z,95402.00
2023-03-29T21:12:21.172Z,95388.00
2023-03-29T21:16:21.371Z,95384.00
2023-03-29T21:20:21.535Z,95388.00
2023-03-29T21:24:21.683Z,95388.00
2023-03-29T21:28:21.793Z,95388.00
2023-03-29T21:32:21.965Z,95382.00
2023-03-29T21:36:22.122Z,95378.00
2023-03-29T21:40:22.263Z,95380.00
2023-03-29T21:44:22.484Z,95380.00
2023-03-29T21:48:22.594Z,95374.00
2023-03-29T21:52:22.733Z,95372.00
2023-03-29T21:56:22.868Z,95372.00
2023-03-29T22:00:23.035Z,95370.00
2023-03-29T22:04:35.722Z,95376.00
2023-03-29T22:08:24.088Z,95376.00
2023-03-29T22:12:23.020Z,95380.00
2023-03-29T22:16:23.000Z,95380.00
2023-03-29T22:20:23.126Z,95382.00
2023-03-29T22:24:23.240Z,95380.00
2023-03-29T22:28:23.378Z,95380.00
2023-03-29T22:32:23.575Z,95384.00
2023-03-29T22:36:23.664Z,95382.00
2023-03-29T22:40:23.873Z,95382.00
2023-03-29T22:44:24.000Z,95367.00
2023-03-29T22:48:24.147Z,95359.00
2023-03-29T22:52:24.311Z,95367.00
2023-03-29T22:56:24.437Z,95365.00
2023-03-29T23:00:24.587Z,95365.00
2023-03-29T23:04:24.815Z,95361.00
2023-03-29T23:08:24.916Z,95361.00
2023-03-29T23:12:25.057Z,95361.00
2023-03-29T23:16:25.279Z,95363.00
2023-03-29T23:20:25.382Z,95355.00
2023-03-29T23:24:25.551Z,95357.00
2023-03-29T23:28:25.696Z,95351.00
2023-03-29T23:32:25.863Z,95345.00
2023-03-29T23:36:26.044Z,95341.00
2023-03-29T23:40:26.178Z,95343.00
2023-03-29T23:44:26.305Z,95331.00
2023-03-29T23:48:26.428Z,95322.00
2023-03-29T23:52:26.573Z,95318.00
2023-03-29T23:56:26.768Z,95308.00
